sensor_id;sensor_type;location;lat;lon;timestamp;P1;durP1;ratioP1;P2;durP2;ratioP2
54263;SDS011;40178;53.042;6.406;2023-04-06T00:01:35;10.02;;;6.05;;
54263;SDS011;40178;53.042;6.406;2023-04-06T00:04:00;8.93;;;5.63;;
54263;SDS011;40178;53.042;6.406;2023-04-06T00:06:26;8.45;;;5.50;;
54263;SDS011;40178;53.042;6.406;2023-04-06T00:08:52;10.55;;;6.00;;
54263;SDS011;40178;53.042;6.406;2023-04-06T00:11:17;9.02;;;5.25;;
54263;SDS011;40178;53.042;6.406;2023-04-06T00:13:43;8.20;;;5.82;;
54263;SDS011;40178;53.042;6.406;2023-04-06T00:16:09;10.02;;;6.13;;
54263;SDS011;40178;53.042;6.406;2023-04-06T00:18:35;11.07;;;6.10;;
54263;SDS011;40178;53.042;6.406;2023-04-06T00:21:01;9.35;;;5.30;;
54263;SDS011;40178;53.042;6.406;2023-04-06T00:23:26;9.20;;;5.80;;
54263;SDS011;40178;53.042;6.406;2023-04-06T00:25:52;8.48;;;5.90;;
54263;SDS011;40178;53.042;6.406;2023-04-06T00:28:17;9.50;;;5.93;;
54263;SDS011;40178;53.042;6.406;2023-04-06T00:30:49;10.32;;;6.05;;
54263;SDS011;40178;53.042;6.406;2023-04-06T00:33:17;9.25;;;5.95;;
54263;SDS011;40178;53.042;6.406;2023-04-06T00:35:46;8.80;;;5.75;;
54263;SDS011;40178;53.042;6.406;2023-04-06T00:38:12;12.65;;;6.18;;
54263;SDS011;40178;53.042;6.406;2023-04-06T00:40:38;11.07;;;6.20;;
54263;SDS011;40178;53.042;6.406;2023-04-06T00:43:05;10.82;;;6.00;;
54263;SDS011;40178;53.042;6.406;2023-04-06T00:45:31;8.70;;;5.80;;
54263;SDS011;40178;53.042;6.406;2023-04-06T00:47:57;9.73;;;5.75;;
54263;SDS011;40178;53.042;6.406;2023-04-06T00:50:23;10.32;;;5.60;;
54263;SDS011;40178;53.042;6.406;2023-04-06T00:52:49;9.07;;;6.28;;
54263;SDS011;40178;53.042;6.406;2023-04-06T00:55:15;8.82;;;5.65;;
54263;SDS011;40178;53.042;6.406;2023-04-06T00:57:41;9.05;;;5.47;;
54263;SDS011;40178;53.042;6.406;2023-04-06T01:00:07;8.63;;;6.57;;
54263;SDS011;40178;53.042;6.406;2023-04-06T01:02:33;9.63;;;6.43;;
54263;SDS011;40178;53.042;6.406;2023-04-06T01:04:59;7.78;;;5.65;;
54263;SDS011;40178;53.042;6.406;2023-04-06T01:07:25;8.98;;;5.72;;
54263;SDS011;40178;53.042;6.406;2023-04-06T01:09:52;8.48;;;5.97;;
54263;SDS011;40178;53.042;6.406;2023-04-06T01:12:19;8.90;;;6.10;;
54263;SDS011;40178;53.042;6.406;2023-04-06T01:14:44;10.20;;;6.35;;
54263;SDS011;40178;53.042;6.406;2023-04-06T01:17:10;10.10;;;6.13;;
54263;SDS011;40178;53.042;6.406;2023-04-06T01:19:36;8.65;;;6.25;;
54263;SDS011;40178;53.042;6.406;2023-04-06T01:22:02;8.75;;;6.15;;
54263;SDS011;40178;53.042;6.406;2023-04-06T01:24:27;9.82;;;6.22;;
54263;SDS011;40178;53.042;6.406;2023-04-06T01:26:53;10.57;;;6.03;;
54263;SDS011;40178;53.042;6.406;2023-04-06T01:29:19;8.88;;;5.80;;
54263;SDS011;40178;53.042;6.406;2023-04-06T01:31:44;11.13;;;7.00;;
54263;SDS011;40178;53.042;6.406;2023-04-06T01:34:10;10.80;;;6.60;;
54263;SDS011;40178;53.042;6.406;2023-04-06T01:36:36;9.43;;;6.25;;
54263;SDS011;40178;53.042;6.406;2023-04-06T01:39:01;10.77;;;6.10;;
54263;SDS011;40178;53.042;6.406;2023-04-06T01:41:27;9.05;;;6.25;;
54263;SDS011;40178;53.042;6.406;2023-04-06T01:43:53;9.38;;;6.05;;
54263;SDS011;40178;53.042;6.406;2023-04-06T01:46:19;9.70;;;6.57;;
54263;SDS011;40178;53.042;6.406;2023-04-06T01:48:45;8.93;;;6.60;;
54263;SDS011;40178;53.042;6.406;2023-04-06T01:51:11;10.57;;;6.47;;
54263;SDS011;40178;53.042;6.406;2023-04-06T01:53:36;10.05;;;6.47;;
54263;SDS011;40178;53.042;6.406;2023-04-06T01:56:02;9.07;;;6.55;;
54263;SDS011;40178;53.042;6.406;2023-04-06T01:58:28;9.35;;;6.22;;
54263;SDS011;40178;53.042;6.406;2023-04-06T02:00:53;8.23;;;5.65;;
54263;SDS011;40178;53.042;6.406;2023-04-06T02:03:19;9.27;;;6.30;;
54263;SDS011;40178;53.042;6.406;2023-04-06T02:05:45;9.82;;;6.20;;
54263;SDS011;40178;53.042;6.406;2023-04-06T02:08:10;10.00;;;5.70;;
54263;SDS011;40178;53.042;6.406;2023-04-06T02:10:36;8.93;;;5.82;;
54263;SDS011;40178;53.042;6.406;2023-04-06T02:13:01;8.43;;;5.57;;
54263;SDS011;40178;53.042;6.406;2023-04-06T02:15:27;8.95;;;6.10;;
54263;SDS011;40178;53.042;6.406;2023-04-06T02:17:53;9.88;;;6.25;;
54263;SDS011;40178;53.042;6.406;2023-04-06T02:20:18;8.43;;;5.90;;
54263;SDS011;40178;53.042;6.406;2023-04-06T02:22:44;8.70;;;6.03;;
54263;SDS011;40178;53.042;6.406;2023-04-06T02:25:10;11.10;;;6.85;;
54263;SDS011;40178;53.042;6.406;2023-04-06T02:27:36;9.18;;;5.68;;
54263;SDS011;40178;53.042;6.406;2023-04-06T02:30:03;8.55;;;5.65;;
54263;SDS011;40178;53.042;6.406;2023-04-06T02:32:29;7.90;;;6.05;;
54263;SDS011;40178;53.042;6.406;2023-04-06T02:34:55;9.02;;;6.22;;
54263;SDS011;40178;53.042;6.406;2023-04-06T02:37:20;11.45;;;6.95;;
54263;SDS011;40178;53.042;6.406;2023-04-06T02:39:48;9.48;;;6.47;;
54263;SDS011;40178;53.042;6.406;2023-04-06T02:42:13;9.50;;;6.55;;
54263;SDS011;40178;53.042;6.406;2023-04-06T02:44:40;9.95;;;6.47;;
54263;SDS011;40178;53.042;6.406;2023-04-06T02:47:06;8.88;;;6.35;;
54263;SDS011;40178;53.042;6.406;2023-04-06T02:49:32;9.57;;;5.82;;
54263;SDS011;40178;53.042;6.406;2023-04-06T02:51:57;7.82;;;5.68;;
54263;SDS011;40178;53.042;6.406;2023-04-06T02:54:23;12.20;;;6.05;;
54263;SDS011;40178;53.042;6.406;2023-04-06T02:56:49;11.00;;;5.93;;
54263;SDS011;40178;53.042;6.406;2023-04-06T02:59:14;9.88;;;6.22;;
54263;SDS011;40178;53.042;6.406;2023-04-06T03:01:40;10.15;;;6.47;;
54263;SDS011;40178;53.042;6.406;2023-04-06T03:04:06;8.98;;;6.15;;
54263;SDS011;40178;53.042;6.406;2023-04-06T03:06:31;9.50;;;6.50;;
54263;SDS011;40178;53.042;6.406;2023-04-06T03:08:57;9.73;;;6.45;;
54263;SDS011;40178;53.042;6.406;2023-04-06T03:11:22;9.05;;;6.72;;
54263;SDS011;40178;53.042;6.406;2023-04-06T03:13:48;8.52;;;5.70;;
54263;SDS011;40178;53.042;6.406;2023-04-06T03:16:14;10.40;;;6.57;;
54263;SDS011;40178;53.042;6.406;2023-04-06T03:18:39;12.02;;;6.57;;
54263;SDS011;40178;53.042;6.406;2023-04-06T03:21:05;10.38;;;6.50;;
54263;SDS011;40178;53.042;6.406;2023-04-06T03:23:30;9.18;;;6.75;;
54263;SDS011;40178;53.042;6.406;2023-04-06T03:25:56;10.02;;;6.88;;
54263;SDS011;40178;53.042;6.406;2023-04-06T03:28:21;9.63;;;6.65;;
54263;SDS011;40178;53.042;6.406;2023-04-06T03:30:47;10.77;;;6.70;;
54263;SDS011;40178;53.042;6.406;2023-04-06T03:33:13;11.90;;;6.88;;
54263;SDS011;40178;53.042;6.406;2023-04-06T03:35:39;10.32;;;6.47;;
54263;SDS011;40178;53.042;6.406;2023-04-06T03:38:04;11.30;;;6.72;;
54263;SDS011;40178;53.042;6.406;2023-04-06T03:40:31;10.40;;;5.88;;
54263;SDS011;40178;53.042;6.406;2023-04-06T03:42:56;11.05;;;6.72;;
54263;SDS011;40178;53.042;6.406;2023-04-06T03:45:22;11.63;;;7.40;;
54263;SDS011;40178;53.042;6.406;2023-04-06T03:47:48;11.38;;;6.68;;
54263;SDS011;40178;53.042;6.406;2023-04-06T03:50:13;11.10;;;6.82;;
54263;SDS011;40178;53.042;6.406;2023-04-06T03:52:39;10.55;;;7.07;;
54263;SDS011;40178;53.042;6.406;2023-04-06T03:55:05;10.25;;;6.15;;
54263;SDS011;40178;53.042;6.406;2023-04-06T03:57:32;10.02;;;6.53;;
54263;SDS011;40178;53.042;6.406;2023-04-06T03:59:57;10.30;;;6.60;;
54263;SDS011;40178;53.042;6.406;2023-04-06T04:02:23;9.52;;;6.75;;
54263;SDS011;40178;53.042;6.406;2023-04-06T04:04:49;10.25;;;6.85;;
54263;SDS011;40178;53.042;6.406;2023-04-06T04:07:14;10.45;;;6.50;;
54263;SDS011;40178;53.042;6.406;2023-04-06T04:09:40;13.38;;;7.15;;
54263;SDS011;40178;53.042;6.406;2023-04-06T04:12:06;11.90;;;6.75;;
54263;SDS011;40178;53.042;6.406;2023-04-06T04:14:31;11.73;;;6.60;;
54263;SDS011;40178;53.042;6.406;2023-04-06T04:16:57;11.38;;;6.60;;
54263;SDS011;40178;53.042;6.406;2023-04-06T04:19:23;9.90;;;6.45;;
54263;SDS011;40178;53.042;6.406;2023-04-06T04:21:48;10.77;;;6.60;;
54263;SDS011;40178;53.042;6.406;2023-04-06T04:24:14;12.13;;;7.05;;
54263;SDS011;40178;53.042;6.406;2023-04-06T04:26:39;10.48;;;6.88;;
54263;SDS011;40178;53.042;6.406;2023-04-06T04:29:06;10.75;;;6.80;;
54263;SDS011;40178;53.042;6.406;2023-04-06T04:31:31;11.05;;;6.85;;
54263;SDS011;40178;53.042;6.406;2023-04-06T04:33:58;10.60;;;7.20;;
54263;SDS011;40178;53.042;6.406;2023-04-06T04:36:24;10.32;;;7.13;;
54263;SDS011;40178;53.042;6.406;2023-04-06T04:38:50;13.18;;;7.28;;
54263;SDS011;40178;53.042;6.406;2023-04-06T04:41:16;9.68;;;6.55;;
54263;SDS011;40178;53.042;6.406;2023-04-06T04:43:42;10.98;;;7.45;;
54263;SDS011;40178;53.042;6.406;2023-04-06T04:46:08;12.27;;;7.75;;
54263;SDS011;40178;53.042;6.406;2023-04-06T04:48:33;13.15;;;7.07;;
54263;SDS011;40178;53.042;6.406;2023-04-06T04:50:59;10.63;;;6.90;;
54263;SDS011;40178;53.042;6.406;2023-04-06T04:53:25;13.75;;;7.30;;
54263;SDS011;40178;53.042;6.406;2023-04-06T04:55:50;9.88;;;4.90;;
54263;SDS011;40178;53.042;6.406;2023-04-06T04:58:16;11.25;;;5.65;;
54263;SDS011;40178;53.042;6.406;2023-04-06T05:00:43;12.18;;;5.95;;
54263;SDS011;40178;53.042;6.406;2023-04-06T05:03:09;9.52;;;5.25;;
54263;SDS011;40178;53.042;6.406;2023-04-06T05:05:43;16.15;;;7.50;;
54263;SDS011;40178;53.042;6.406;2023-04-06T05:08:08;12.35;;;5.75;;
54263;SDS011;40178;53.042;6.406;2023-04-06T05:10:34;14.00;;;6.68;;
54263;SDS011;40178;53.042;6.406;2023-04-06T05:13:00;11.65;;;6.45;;
54263;SDS011;40178;53.042;6.406;2023-04-06T05:15:26;11.18;;;5.80;;
54263;SDS011;40178;53.042;6.406;2023-04-06T05:17:51;11.15;;;5.47;;
54263;SDS011;40178;53.042;6.406;2023-04-06T05:20:17;9.60;;;5.07;;
54263;SDS011;40178;53.042;6.406;2023-04-06T05:22:43;11.43;;;5.45;;
54263;SDS011;40178;53.042;6.406;2023-04-06T05:25:08;9.20;;;5.15;;
54263;SDS011;40178;53.042;6.406;2023-04-06T05:27:34;9.88;;;5.35;;
54263;SDS011;40178;53.042;6.406;2023-04-06T05:29:59;9.32;;;5.50;;
54263;SDS011;40178;53.042;6.406;2023-04-06T05:32:26;10.63;;;5.35;;
54263;SDS011;40178;53.042;6.406;2023-04-06T05:34:52;8.80;;;4.60;;
54263;SDS011;40178;53.042;6.406;2023-04-06T05:37:18;8.77;;;5.13;;
54263;SDS011;40178;53.042;6.406;2023-04-06T05:39:43;10.88;;;5.45;;
54263;SDS011;40178;53.042;6.406;2023-04-06T05:42:09;9.68;;;5.82;;
54263;SDS011;40178;53.042;6.406;2023-04-06T05:44:36;9.43;;;5.28;;
54263;SDS011;40178;53.042;6.406;2023-04-06T05:47:02;12.25;;;6.00;;
54263;SDS011;40178;53.042;6.406;2023-04-06T05:49:28;9.00;;;5.43;;
54263;SDS011;40178;53.042;6.406;2023-04-06T05:51:54;9.93;;;5.82;;
54263;SDS011;40178;53.042;6.406;2023-04-06T05:54:20;9.75;;;5.43;;
54263;SDS011;40178;53.042;6.406;2023-04-06T05:56:45;9.05;;;5.45;;
54263;SDS011;40178;53.042;6.406;2023-04-06T05:59:11;11.48;;;5.85;;
54263;SDS011;40178;53.042;6.406;2023-04-06T06:01:37;9.68;;;5.03;;
54263;SDS011;40178;53.042;6.406;2023-04-06T06:04:02;11.48;;;6.00;;
54263;SDS011;40178;53.042;6.406;2023-04-06T06:06:28;9.80;;;5.35;;
54263;SDS011;40178;53.042;6.406;2023-04-06T06:08:57;10.45;;;5.15;;
54263;SDS011;40178;53.042;6.406;2023-04-06T06:11:27;10.27;;;5.25;;
54263;SDS011;40178;53.042;6.406;2023-04-06T06:13:53;10.38;;;5.28;;
54263;SDS011;40178;53.042;6.406;2023-04-06T06:16:18;9.68;;;5.60;;
54263;SDS011;40178;53.042;6.406;2023-04-06T06:18:44;11.93;;;6.10;;
54263;SDS011;40178;53.042;6.406;2023-04-06T06:21:10;10.93;;;5.50;;
54263;SDS011;40178;53.042;6.406;2023-04-06T06:23:42;11.88;;;5.93;;
54263;SDS011;40178;53.042;6.406;2023-04-06T06:26:07;13.82;;;5.70;;
54263;SDS011;40178;53.042;6.406;2023-04-06T06:28:33;11.07;;;5.80;;
54263;SDS011;40178;53.042;6.406;2023-04-06T06:30:59;11.20;;;6.15;;
54263;SDS011;40178;53.042;6.406;2023-04-06T06:33:26;11.20;;;5.88;;
54263;SDS011;40178;53.042;6.406;2023-04-06T06:35:51;11.23;;;6.32;;
54263;SDS011;40178;53.042;6.406;2023-04-06T06:38:17;9.13;;;5.32;;
54263;SDS011;40178;53.042;6.406;2023-04-06T06:40:44;10.38;;;5.95;;
54263;SDS011;40178;53.042;6.406;2023-04-06T06:43:10;11.25;;;5.90;;
54263;SDS011;40178;53.042;6.406;2023-04-06T06:45:36;9.93;;;5.40;;
54263;SDS011;40178;53.042;6.406;2023-04-06T06:48:02;11.20;;;6.00;;
54263;SDS011;40178;53.042;6.406;2023-04-06T06:50:27;9.70;;;5.43;;
54263;SDS011;40178;53.042;6.406;2023-04-06T06:52:53;12.60;;;5.88;;
54263;SDS011;40178;53.042;6.406;2023-04-06T06:55:18;10.77;;;5.90;;
54263;SDS011;40178;53.042;6.406;2023-04-06T06:57:44;11.13;;;5.97;;
54263;SDS011;40178;53.042;6.406;2023-04-06T07:00:11;11.32;;;5.80;;
54263;SDS011;40178;53.042;6.406;2023-04-06T07:02:38;11.27;;;6.40;;
54263;SDS011;40178;53.042;6.406;2023-04-06T07:05:04;13.40;;;6.05;;
54263;SDS011;40178;53.042;6.406;2023-04-06T07:07:33;11.18;;;5.63;;
54263;SDS011;40178;53.042;6.406;2023-04-06T07:09:59;10.60;;;6.35;;
54263;SDS011;40178;53.042;6.406;2023-04-06T07:12:25;9.98;;;5.70;;
54263;SDS011;40178;53.042;6.406;2023-04-06T07:14:51;10.13;;;6.03;;
54263;SDS011;40178;53.042;6.406;2023-04-06T07:17:17;10.77;;;5.90;;
54263;SDS011;40178;53.042;6.406;2023-04-06T07:19:43;12.57;;;5.55;;
54263;SDS011;40178;53.042;6.406;2023-04-06T07:22:08;10.13;;;5.38;;
54263;SDS011;40178;53.042;6.406;2023-04-06T07:24:34;11.55;;;6.47;;
54263;SDS011;40178;53.042;6.406;2023-04-06T07:27:00;12.73;;;5.95;;
54263;SDS011;40178;53.042;6.406;2023-04-06T07:29:26;12.65;;;6.20;;
54263;SDS011;40178;53.042;6.406;2023-04-06T07:31:53;12.73;;;5.88;;
54263;SDS011;40178;53.042;6.406;2023-04-06T07:34:18;11.45;;;6.53;;
54263;SDS011;40178;53.042;6.406;2023-04-06T07:36:44;14.18;;;6.55;;
54263;SDS011;40178;53.042;6.406;2023-04-06T07:39:10;12.55;;;6.13;;
54263;SDS011;40178;53.042;6.406;2023-04-06T07:41:36;15.20;;;7.07;;
54263;SDS011;40178;53.042;6.406;2023-04-06T07:44:02;13.68;;;6.85;;
54263;SDS011;40178;53.042;6.406;2023-04-06T07:46:28;11.18;;;5.60;;
54263;SDS011;40178;53.042;6.406;2023-04-06T07:48:53;10.45;;;5.60;;
54263;SDS011;40178;53.042;6.406;2023-04-06T07:51:19;11.05;;;5.53;;
54263;SDS011;40178;53.042;6.406;2023-04-06T07:53:45;12.52;;;5.95;;
54263;SDS011;40178;53.042;6.406;2023-04-06T07:56:10;11.57;;;6.00;;
54263;SDS011;40178;53.042;6.406;2023-04-06T07:58:37;12.60;;;6.25;;
54263;SDS011;40178;53.042;6.406;2023-04-06T08:01:03;11.55;;;5.20;;
54263;SDS011;40178;53.042;6.406;2023-04-06T08:03:28;11.63;;;5.60;;
54263;SDS011;40178;53.042;6.406;2023-04-06T08:05:54;10.32;;;5.70;;
54263;SDS011;40178;53.042;6.406;2023-04-06T08:08:20;11.13;;;6.10;;
54263;SDS011;40178;53.042;6.406;2023-04-06T08:10:46;11.80;;;5.85;;
54263;SDS011;40178;53.042;6.406;2023-04-06T08:13:13;10.48;;;5.90;;
54263;SDS011;40178;53.042;6.406;2023-04-06T08:15:39;11.32;;;5.85;;
54263;SDS011;40178;53.042;6.406;2023-04-06T08:18:05;11.25;;;5.80;;
54263;SDS011;40178;53.042;6.406;2023-04-06T08:20:31;12.23;;;6.18;;
54263;SDS011;40178;53.042;6.406;2023-04-06T08:22:56;10.05;;;5.50;;
54263;SDS011;40178;53.042;6.406;2023-04-06T08:25:22;11.75;;;5.65;;
54263;SDS011;40178;53.042;6.406;2023-04-06T08:27:47;9.30;;;5.30;;
54263;SDS011;40178;53.042;6.406;2023-04-06T08:30:13;9.85;;;5.82;;
54263;SDS011;40178;53.042;6.406;2023-04-06T08:32:40;12.43;;;6.30;;
54263;SDS011;40178;53.042;6.406;2023-04-06T08:35:06;13.75;;;6.55;;
54263;SDS011;40178;53.042;6.406;2023-04-06T08:37:32;9.93;;;5.78;;
54263;SDS011;40178;53.042;6.406;2023-04-06T08:39:58;11.13;;;6.63;;
54263;SDS011;40178;53.042;6.406;2023-04-06T08:42:24;12.73;;;6.10;;
54263;SDS011;40178;53.042;6.406;2023-04-06T08:44:51;11.15;;;5.85;;
54263;SDS011;40178;53.042;6.406;2023-04-06T08:47:18;10.85;;;6.20;;
54263;SDS011;40178;53.042;6.406;2023-04-06T08:49:44;12.27;;;6.18;;
54263;SDS011;40178;53.042;6.406;2023-04-06T08:52:11;12.65;;;6.00;;
54263;SDS011;40178;53.042;6.406;2023-04-06T08:54:37;11.23;;;5.95;;
54263;SDS011;40178;53.042;6.406;2023-04-06T08:57:04;12.90;;;6.43;;
54263;SDS011;40178;53.042;6.406;2023-04-06T08:59:31;11.40;;;6.00;;
54263;SDS011;40178;53.042;6.406;2023-04-06T09:01:57;12.10;;;6.07;;
54263;SDS011;40178;53.042;6.406;2023-04-06T09:04:24;12.45;;;7.25;;
54263;SDS011;40178;53.042;6.406;2023-04-06T09:06:51;14.18;;;6.03;;
54263;SDS011;40178;53.042;6.406;2023-04-06T09:09:17;10.80;;;5.72;;
54263;SDS011;40178;53.042;6.406;2023-04-06T09:14:15;11.95;;;6.32;;
54263;SDS011;40178;53.042;6.406;2023-04-06T09:16:42;11.65;;;6.13;;
54263;SDS011;40178;53.042;6.406;2023-04-06T09:19:10;11.20;;;5.97;;
54263;SDS011;40178;53.042;6.406;2023-04-06T09:21:37;13.98;;;7.50;;
54263;SDS011;40178;53.042;6.406;2023-04-06T09:24:05;14.18;;;7.40;;
54263;SDS011;40178;53.042;6.406;2023-04-06T09:26:32;12.13;;;7.28;;
54263;SDS011;40178;53.042;6.406;2023-04-06T09:29:08;14.73;;;7.68;;
54263;SDS011;40178;53.042;6.406;2023-04-06T09:31:34;13.35;;;7.25;;
54263;SDS011;40178;53.042;6.406;2023-04-06T09:34:00;12.85;;;7.05;;
54263;SDS011;40178;53.042;6.406;2023-04-06T09:36:36;13.15;;;7.43;;
54263;SDS011;40178;53.042;6.406;2023-04-06T09:39:06;15.32;;;8.02;;
54263;SDS011;40178;53.042;6.406;2023-04-06T09:41:33;17.55;;;8.25;;
54263;SDS011;40178;53.042;6.406;2023-04-06T09:46:36;16.80;;;8.15;;
54263;SDS011;40178;53.042;6.406;2023-04-06T09:49:04;14.98;;;8.50;;
54263;SDS011;40178;53.042;6.406;2023-04-06T09:51:31;15.75;;;8.10;;
54263;SDS011;40178;53.042;6.406;2023-04-06T09:54:03;14.88;;;8.10;;
54263;SDS011;40178;53.042;6.406;2023-04-06T09:56:31;15.63;;;8.20;;
54263;SDS011;40178;53.042;6.406;2023-04-06T09:59:05;15.52;;;7.75;;
54263;SDS011;40178;53.042;6.406;2023-04-06T10:01:36;17.00;;;8.77;;
54263;SDS011;40178;53.042;6.406;2023-04-06T10:06:53;16.33;;;9.00;;
54263;SDS011;40178;53.042;6.406;2023-04-06T10:09:27;17.65;;;9.70;;
54263;SDS011;40178;53.042;6.406;2023-04-06T10:12:00;17.83;;;8.75;;
54263;SDS011;40178;53.042;6.406;2023-04-06T10:14:33;15.88;;;9.13;;
54263;SDS011;40178;53.042;6.406;2023-04-06T10:17:03;17.20;;;8.52;;
54263;SDS011;40178;53.042;6.406;2023-04-06T10:19:32;15.70;;;8.55;;
54263;SDS011;40178;53.042;6.406;2023-04-06T10:22:04;18.58;;;8.70;;
54263;SDS011;40178;53.042;6.406;2023-04-06T10:24:31;17.80;;;8.65;;
54263;SDS011;40178;53.042;6.406;2023-04-06T10:27:03;19.58;;;8.77;;
54263;SDS011;40178;53.042;6.406;2023-04-06T10:29:41;18.10;;;8.68;;
54263;SDS011;40178;53.042;6.406;2023-04-06T10:32:08;18.25;;;8.07;;
54263;SDS011;40178;53.042;6.406;2023-04-06T10:34:34;18.65;;;9.00;;
54263;SDS011;40178;53.042;6.406;2023-04-06T10:37:09;16.30;;;8.85;;
54263;SDS011;40178;53.042;6.406;2023-04-06T10:39:45;16.92;;;8.85;;
54263;SDS011;40178;53.042;6.406;2023-04-06T10:42:12;16.55;;;9.40;;
54263;SDS011;40178;53.042;6.406;2023-04-06T10:44:41;19.15;;;10.25;;
54263;SDS011;40178;53.042;6.406;2023-04-06T10:47:15;15.82;;;9.05;;
54263;SDS011;40178;53.042;6.406;2023-04-06T10:49:42;19.97;;;9.97;;
54263;SDS011;40178;53.042;6.406;2023-04-06T10:52:08;16.77;;;9.23;;
54263;SDS011;40178;53.042;6.406;2023-04-06T10:54:34;20.42;;;11.00;;
54263;SDS011;40178;53.042;6.406;2023-04-06T10:57:09;19.17;;;10.40;;
54263;SDS011;40178;53.042;6.406;2023-04-06T10:59:34;19.55;;;10.32;;
54263;SDS011;40178;53.042;6.406;2023-04-06T11:02:00;20.55;;;10.25;;
54263;SDS011;40178;53.042;6.406;2023-04-06T11:04:26;23.27;;;12.02;;
54263;SDS011;40178;53.042;6.406;2023-04-06T11:06:51;25.15;;;12.70;;
54263;SDS011;40178;53.042;6.406;2023-04-06T11:09:26;23.00;;;11.32;;
54263;SDS011;40178;53.042;6.406;2023-04-06T11:11:54;21.15;;;11.63;;
54263;SDS011;40178;53.042;6.406;2023-04-06T11:14:21;23.33;;;11.35;;
54263;SDS011;40178;53.042;6.406;2023-04-06T11:16:47;21.35;;;10.98;;
54263;SDS011;40178;53.042;6.406;2023-04-06T11:19:16;20.02;;;11.07;;
54263;SDS011;40178;53.042;6.406;2023-04-06T11:21:43;23.50;;;11.55;;
54263;SDS011;40178;53.042;6.406;2023-04-06T11:24:16;19.98;;;11.00;;
54263;SDS011;40178;53.042;6.406;2023-04-06T11:26:49;19.58;;;10.68;;
54263;SDS011;40178;53.042;6.406;2023-04-06T11:29:20;24.20;;;12.20;;
54263;SDS011;40178;53.042;6.406;2023-04-06T11:31:54;23.45;;;12.02;;
54263;SDS011;40178;53.042;6.406;2023-04-06T11:34:24;22.73;;;11.77;;
54263;SDS011;40178;53.042;6.406;2023-04-06T11:37:03;21.08;;;11.43;;
54263;SDS011;40178;53.042;6.406;2023-04-06T11:39:37;21.88;;;11.00;;
54263;SDS011;40178;53.042;6.406;2023-04-06T11:42:04;18.75;;;10.32;;
54263;SDS011;40178;53.042;6.406;2023-04-06T11:44:33;23.27;;;11.75;;
54263;SDS011;40178;53.042;6.406;2023-04-06T11:47:11;24.00;;;11.65;;
54263;SDS011;40178;53.042;6.406;2023-04-06T11:49:37;19.95;;;11.45;;
54263;SDS011;40178;53.042;6.406;2023-04-06T11:52:27;25.95;;;12.50;;
54263;SDS011;40178;53.042;6.406;2023-04-06T11:54:53;21.33;;;12.45;;
54263;SDS011;40178;53.042;6.406;2023-04-06T11:57:21;21.73;;;11.52;;
54263;SDS011;40178;53.042;6.406;2023-04-06T11:59:50;22.23;;;12.50;;
54263;SDS011;40178;53.042;6.406;2023-04-06T12:02:16;25.20;;;12.30;;
54263;SDS011;40178;53.042;6.406;2023-04-06T12:04:43;22.42;;;10.95;;
54263;SDS011;40178;53.042;6.406;2023-04-06T12:07:09;22.60;;;11.45;;
54263;SDS011;40178;53.042;6.406;2023-04-06T12:09:34;21.38;;;11.02;;
54263;SDS011;40178;53.042;6.406;2023-04-06T12:12:01;21.27;;;10.68;;
54263;SDS011;40178;53.042;6.406;2023-04-06T12:14:27;22.27;;;12.30;;
54263;SDS011;40178;53.042;6.406;2023-04-06T12:16:53;22.52;;;11.15;;
54263;SDS011;40178;53.042;6.406;2023-04-06T12:19:18;21.35;;;10.85;;
54263;SDS011;40178;53.042;6.406;2023-04-06T12:21:44;23.13;;;12.73;;
54263;SDS011;40178;53.042;6.406;2023-04-06T12:24:10;23.05;;;11.52;;
54263;SDS011;40178;53.042;6.406;2023-04-06T12:26:35;26.77;;;11.95;;
54263;SDS011;40178;53.042;6.406;2023-04-06T12:29:02;24.13;;;12.70;;
54263;SDS011;40178;53.042;6.406;2023-04-06T12:31:31;23.30;;;12.02;;
54263;SDS011;40178;53.042;6.406;2023-04-06T12:33:58;20.85;;;11.57;;
54263;SDS011;40178;53.042;6.406;2023-04-06T12:36:23;20.60;;;11.02;;
54263;SDS011;40178;53.042;6.406;2023-04-06T12:38:49;22.98;;;11.88;;
54263;SDS011;40178;53.042;6.406;2023-04-06T12:41:18;22.52;;;11.55;;
54263;SDS011;40178;53.042;6.406;2023-04-06T12:43:45;23.67;;;12.27;;
54263;SDS011;40178;53.042;6.406;2023-04-06T12:46:11;20.92;;;11.45;;
54263;SDS011;40178;53.042;6.406;2023-04-06T12:48:37;20.35;;;10.32;;
54263;SDS011;40178;53.042;6.406;2023-04-06T12:51:03;21.35;;;11.35;;
54263;SDS011;40178;53.042;6.406;2023-04-06T12:53:30;20.60;;;11.07;;
54263;SDS011;40178;53.042;6.406;2023-04-06T12:55:57;18.33;;;9.90;;
54263;SDS011;40178;53.042;6.406;2023-04-06T12:58:23;17.98;;;10.35;;
54263;SDS011;40178;53.042;6.406;2023-04-06T13:00:54;19.05;;;10.00;;
54263;SDS011;40178;53.042;6.406;2023-04-06T13:03:21;20.77;;;10.05;;
54263;SDS011;40178;53.042;6.406;2023-04-06T13:05:47;20.42;;;10.50;;
54263;SDS011;40178;53.042;6.406;2023-04-06T13:08:17;18.00;;;8.82;;
54263;SDS011;40178;53.042;6.406;2023-04-06T13:10:47;14.75;;;8.20;;
54263;SDS011;40178;53.042;6.406;2023-04-06T13:13:14;14.48;;;6.57;;
54263;SDS011;40178;53.042;6.406;2023-04-06T13:15:40;14.32;;;6.93;;
54263;SDS011;40178;53.042;6.406;2023-04-06T13:18:06;17.20;;;7.47;;
54263;SDS011;40178;53.042;6.406;2023-04-06T13:20:32;13.40;;;6.47;;
54263;SDS011;40178;53.042;6.406;2023-04-06T13:22:57;15.55;;;5.50;;
54263;SDS011;40178;53.042;6.406;2023-04-06T13:25:23;11.13;;;5.13;;
54263;SDS011;40178;53.042;6.406;2023-04-06T13:27:49;11.85;;;5.82;;
54263;SDS011;40178;53.042;6.406;2023-04-06T13:30:15;14.50;;;7.35;;
54263;SDS011;40178;53.042;6.406;2023-04-06T13:32:41;13.10;;;6.22;;
54263;SDS011;40178;53.042;6.406;2023-04-06T13:35:06;14.38;;;6.35;;
54263;SDS011;40178;53.042;6.406;2023-04-06T13:37:33;13.10;;;6.47;;
54263;SDS011;40178;53.042;6.406;2023-04-06T13:39:59;17.95;;;7.32;;
54263;SDS011;40178;53.042;6.406;2023-04-06T13:42:25;15.43;;;7.35;;
54263;SDS011;40178;53.042;6.406;2023-04-06T13:44:52;14.90;;;7.40;;
54263;SDS011;40178;53.042;6.406;2023-04-06T13:47:18;16.70;;;7.47;;
54263;SDS011;40178;53.042;6.406;2023-04-06T13:49:46;16.85;;;7.05;;
54263;SDS011;40178;53.042;6.406;2023-04-06T13:52:12;14.57;;;6.85;;
54263;SDS011;40178;53.042;6.406;2023-04-06T13:54:37;12.55;;;6.35;;
54263;SDS011;40178;53.042;6.406;2023-04-06T13:57:03;12.50;;;6.85;;
54263;SDS011;40178;53.042;6.406;2023-04-06T13:59:34;15.15;;;6.68;;
54263;SDS011;40178;53.042;6.406;2023-04-06T14:02:01;14.18;;;6.72;;
54263;SDS011;40178;53.042;6.406;2023-04-06T14:04:27;13.13;;;7.05;;
54263;SDS011;40178;53.042;6.406;2023-04-06T14:06:53;13.82;;;6.47;;
54263;SDS011;40178;53.042;6.406;2023-04-06T14:09:19;13.05;;;6.25;;
54263;SDS011;40178;53.042;6.406;2023-04-06T14:11:44;13.18;;;6.07;;
54263;SDS011;40178;53.042;6.406;2023-04-06T14:14:10;11.45;;;5.95;;
54263;SDS011;40178;53.042;6.406;2023-04-06T14:16:35;14.52;;;7.28;;
54263;SDS011;40178;53.042;6.406;2023-04-06T14:19:01;12.35;;;5.25;;
54263;SDS011;40178;53.042;6.406;2023-04-06T14:21:27;10.90;;;5.68;;
54263;SDS011;40178;53.042;6.406;2023-04-06T14:23:53;11.90;;;5.53;;
54263;SDS011;40178;53.042;6.406;2023-04-06T14:26:20;13.02;;;5.13;;
54263;SDS011;40178;53.042;6.406;2023-04-06T14:28:45;9.10;;;4.80;;
54263;SDS011;40178;53.042;6.406;2023-04-06T14:31:14;12.93;;;6.47;;
54263;SDS011;40178;53.042;6.406;2023-04-06T14:33:41;12.85;;;6.00;;
54263;SDS011;40178;53.042;6.406;2023-04-06T14:36:07;11.68;;;5.75;;
54263;SDS011;40178;53.042;6.406;2023-04-06T14:38:33;12.90;;;5.55;;
54263;SDS011;40178;53.042;6.406;2023-04-06T14:40:59;12.25;;;5.57;;